Weather at Manangatang Airport

Public forecast

Using degrees Celsius for public forecast. Weather courtesy of forecast.io.

Closest aviation weather report (METAR) to Manangatang Airport

Report is more than 6 hours old.

Closest report is Mildura Airport, 62.3 nm (115.3 km) NW. Retrieved 2022/05/26 19:30 UTC (11 hours ago):

YMIA 261930Z AUTO 20005KT 9999 // BKN005 BKN020 BKN072 12/12 Q1018

Closest aviation forecast (TAF) to Manangatang Airport

Forecast is more than 12 hours old.

Closest forecast is Wangaratta Airport, 186.9 nm (346.2 km) ESE. Retrieved 2022/05/11 20:03 UTC (15 days ago):

TAF TAF YWGT 111803Z 1120/1208 16005KT 9999 -RA BKN040 FM120200 12005KT 9999 -RA BKN025 TEMPO 1120/1208 4000 RA SCT015 BKN020